createdAt,value
2018-09-22T00:03:09.317Z,84.70
2018-09-22T00:05:39.964Z,84.00
2018-09-22T00:08:19.535Z,84.20
2018-09-22T00:10:59.034Z,85.00
2018-09-22T00:13:35.500Z,85.60
2018-09-22T00:42:36.923Z,85.00
2018-09-22T00:45:12.923Z,82.90
2018-09-22T00:47:46.061Z,86.80
2018-09-22T00:50:20.116Z,86.10
2018-09-22T00:53:02.890Z,86.80
2018-09-22T00:55:46.046Z,86.80
2018-09-22T00:58:21.122Z,87.70
2018-09-22T01:00:51.726Z,85.80
2018-09-22T01:03:29.289Z,84.00
2018-09-22T01:05:59.606Z,84.70
2018-09-22T01:08:34.119Z,85.70
2018-09-22T01:11:04.855Z,85.00
2018-09-22T01:13:35.995Z,84.40
2018-09-22T01:16:11.048Z,83.90
2018-09-22T01:18:44.543Z,83.10
2018-09-22T01:21:17.602Z,83.90
2018-09-22T01:23:47.731Z,85.30
2018-09-22T01:26:18.060Z,86.40
2018-09-22T01:28:48.141Z,85.90
2018-09-22T01:34:08.524Z,85.50
2018-09-22T01:36:39.562Z,85.10
2018-09-22T01:39:13.676Z,84.40
2018-09-22T01:41:44.641Z,85.10
2018-09-22T01:57:52.370Z,84.20
2018-09-22T02:00:25.372Z,85.40
2018-09-22T02:02:54.993Z,85.10
2018-09-22T05:37:23.626Z,84.80
2018-09-22T05:39:52.300Z,89.20
2018-09-22T05:42:22.964Z,89.30
2018-09-22T05:44:54.189Z,89.40
2018-09-22T05:47:23.388Z,90.10
2018-09-22T05:50:00.240Z,89.60
2018-09-22T05:52:30.858Z,89.90
2018-09-22T05:55:01.206Z,90.20
2018-09-22T05:57:34.681Z,90.60
2018-09-22T06:00:07.332Z,90.80
2018-09-22T06:02:41.032Z,90.90
2018-09-22T06:05:11.630Z,90.90
2018-09-22T06:07:42.715Z,90.80
2018-09-22T06:10:14.597Z,90.80
2018-09-22T06:12:44.814Z,90.80
2018-09-22T06:15:14.143Z,91.00
2018-09-22T06:17:44.878Z,91.00
2018-09-22T06:23:25.464Z,91.00
2018-09-22T06:25:54.356Z,90.80
2018-09-22T06:28:23.757Z,90.90
2018-09-22T06:30:52.730Z,91.00
2018-09-22T06:33:22.195Z,91.00
2018-09-22T06:35:51.888Z,91.10
2018-09-22T06:38:20.478Z,91.40
2018-09-22T06:40:49.608Z,91.70
2018-09-22T06:43:19.263Z,91.40
2018-09-22T06:45:48.047Z,91.30
2018-09-22T06:48:17.089Z,91.90
2018-09-22T06:50:45.848Z,92.50
2018-09-22T06:53:16.031Z,92.40
2018-09-22T06:55:44.922Z,92.10
2018-09-22T06:58:13.671Z,92.20
2018-09-22T07:00:42.969Z,91.90
2018-09-22T07:03:12.269Z,91.60
2018-09-22T07:05:41.776Z,91.20
2018-09-22T07:08:10.626Z,91.60
2018-09-22T07:10:39.402Z,91.10
2018-09-22T07:13:09.020Z,90.90
2018-09-22T07:15:37.813Z,91.00
2018-09-22T07:18:06.960Z,91.00
2018-09-22T07:20:39.931Z,91.40
2018-09-22T07:23:18.628Z,91.20
2018-09-22T07:25:51.417Z,90.80
2018-09-22T07:28:23.102Z,91.00
2018-09-22T07:30:58.103Z,91.00
2018-09-22T07:33:28.901Z,91.20
2018-09-22T07:38:46.384Z,91.00
2018-09-22T07:41:18.171Z,90.70
2018-09-22T07:43:51.180Z,90.80
2018-09-22T07:46:29.501Z,90.40
2018-09-22T07:49:00.392Z,91.00
2018-09-22T07:51:51.056Z,92.70
2018-09-22T07:54:29.616Z,94.30
2018-09-22T07:57:02.438Z,95.10
2018-09-22T08:02:27.778Z,95.60
2018-09-22T08:04:58.444Z,95.30
2018-09-22T08:07:28.762Z,95.20
2018-09-22T08:10:02.764Z,95.10
2018-09-22T08:12:34.670Z,95.20
2018-09-22T08:15:11.973Z,94.80
2018-09-22T08:17:44.341Z,94.70
2018-09-22T08:20:22.127Z,94.60
2018-09-22T08:23:14.058Z,94.60
2018-09-22T08:25:49.982Z,94.60
2018-09-22T08:28:26.546Z,94.00
2018-09-22T08:31:11.276Z,94.30
2018-09-22T08:33:43.373Z,93.50
2018-09-22T08:36:42.663Z,93.60
2018-09-22T08:39:13.620Z,93.90
2018-09-22T08:41:44.627Z,94.20
2018-09-22T08:44:13.381Z,94.50
2018-09-22T08:49:24.227Z,94.50
2018-09-22T08:54:40.172Z,94.70
2018-09-22T08:57:11.564Z,94.70
2018-09-22T08:59:44.640Z,94.60
2018-09-22T09:02:18.322Z,94.70
2018-09-22T09:04:47.716Z,94.80
2018-09-22T09:07:19.554Z,94.50
2018-09-22T09:09:48.715Z,94.60
2018-09-22T09:12:21.477Z,94.80
2018-09-22T09:14:51.994Z,94.90
2018-09-22T09:17:22.545Z,95.00
2018-09-22T09:19:52.309Z,95.40
2018-09-22T09:22:21.515Z,94.70
2018-09-22T09:24:51.050Z,94.70
2018-09-22T09:27:20.464Z,94.60
2018-09-22T09:29:49.728Z,94.50
2018-09-22T09:32:19.950Z,94.50
2018-09-22T09:34:49.566Z,94.50
2018-09-22T09:37:18.568Z,94.70
2018-09-22T09:39:47.165Z,94.10
2018-09-22T09:42:16.636Z,94.60
2018-09-22T09:44:46.079Z,95.00
2018-09-22T09:47:16.259Z,94.60
2018-09-22T09:49:45.458Z,94.50
2018-09-22T09:52:26.929Z,94.50
2018-09-22T09:55:00.086Z,94.50
2018-09-22T09:57:31.937Z,92.90
2018-09-22T10:21:24.371Z,90.30
2018-09-22T10:23:53.809Z,90.40
2018-09-22T10:26:23.370Z,89.90
2018-09-22T10:28:52.009Z,87.40
2018-09-22T10:31:21.852Z,87.10
2018-09-22T10:33:51.411Z,87.30
2018-09-22T10:36:20.832Z,87.70
2018-09-22T10:38:52.922Z,88.80
2018-09-22T10:41:21.625Z,88.20
2018-09-22T10:43:50.266Z,89.10
2018-09-22T10:46:20.947Z,90.00
2018-09-22T10:48:56.279Z,92.10
2018-09-22T10:51:25.660Z,94.40
2018-09-22T10:53:54.378Z,95.90
2018-09-22T10:56:26.006Z,96.50
2018-09-22T11:01:37.090Z,97.60
2018-09-22T11:04:05.784Z,97.70
2018-09-22T11:06:34.251Z,98.00
2018-09-22T11:09:03.113Z,98.20
2018-09-22T11:11:32.649Z,98.80
2018-09-22T11:14:01.313Z,98.50
2018-09-22T11:16:34.599Z,99.50
2018-09-22T11:19:03.486Z,98.80
2018-09-22T11:21:33.363Z,99.90
2018-09-22T11:24:02.497Z,99.20
2018-09-22T11:26:31.351Z,99.20
2018-09-22T11:31:40.547Z,99.50
2018-09-22T11:34:09.394Z,99.70
2018-09-22T11:36:38.302Z,99.90
2018-09-22T11:39:09.906Z,99.90
2018-09-22T11:41:38.928Z,99.90
2018-09-22T11:44:08.203Z,99.90
2018-09-22T11:46:36.911Z,99.90
2018-09-22T11:49:05.759Z,99.90
2018-09-22T11:51:34.464Z,99.90
2018-09-22T11:54:03.313Z,99.90
2018-09-22T11:56:32.361Z,99.90
2018-09-22T11:59:02.668Z,99.90
2018-09-22T12:01:31.847Z,99.90
2018-09-22T12:04:00.541Z,99.90
2018-09-22T12:06:29.526Z,99.90
2018-09-22T12:08:58.780Z,99.90
2018-09-22T12:11:28.351Z,99.90
2018-09-22T12:13:57.034Z,99.90
2018-09-22T12:16:26.055Z,99.90
2018-09-22T12:18:55.465Z,99.90
2018-09-22T12:21:24.494Z,99.90
2018-09-22T12:23:54.136Z,99.90
2018-09-22T12:26:22.975Z,99.90
2018-09-22T12:28:51.916Z,99.90
2018-09-22T12:31:20.824Z,99.90
2018-09-22T12:33:49.826Z,99.90
2018-09-22T12:36:19.166Z,99.90
2018-09-22T12:38:48.762Z,99.90
2018-09-22T12:41:18.102Z,99.90
2018-09-22T12:43:46.738Z,99.90
2018-09-22T12:46:15.629Z,99.90
2018-09-22T12:48:48.742Z,99.90
2018-09-22T12:51:18.011Z,99.90
2018-09-22T12:53:47.646Z,99.90
2018-09-22T12:56:17.335Z,99.90
2018-09-22T12:58:47.079Z,99.90
2018-09-22T13:01:15.924Z,99.90
2018-09-22T13:03:45.946Z,99.90
2018-09-22T13:06:14.508Z,99.90
2018-09-22T13:08:44.570Z,99.90
2018-09-22T13:11:14.460Z,99.90
2018-09-22T13:13:44.361Z,99.90
2018-09-22T13:16:14.278Z,99.90
2018-09-22T13:18:50.569Z,99.90
2018-09-22T13:21:20.870Z,99.90
2018-09-22T13:23:51.939Z,99.90
2018-09-22T13:26:35.400Z,99.90
2018-09-22T13:29:12.421Z,99.90
2018-09-22T13:31:42.425Z,99.90
2018-09-22T13:34:13.877Z,99.90
2018-09-22T13:36:45.575Z,99.90
2018-09-22T13:39:14.433Z,99.90
2018-09-22T13:44:36.583Z,99.90
2018-09-22T13:47:09.728Z,99.90
2018-09-22T13:49:41.501Z,99.90
2018-09-22T13:52:13.732Z,99.90
2018-09-22T13:54:45.794Z,99.90
2018-09-22T13:57:18.702Z,99.90
2018-09-22T13:59:51.579Z,99.90
2018-09-22T14:02:20.982Z,99.90
2018-09-22T14:04:51.321Z,99.90
2018-09-22T14:07:24.710Z,99.90
2018-09-22T14:09:54.309Z,99.90
2018-09-22T14:12:26.057Z,99.90
2018-09-22T14:14:56.069Z,99.90
2018-09-22T14:17:28.268Z,99.90
2018-09-22T14:19:57.785Z,99.90
2018-09-22T14:22:27.172Z,99.90
2018-09-22T14:25:14.104Z,99.90
2018-09-22T14:27:50.237Z,99.90
2018-09-22T14:30:22.632Z,99.90
2018-09-22T14:33:11.385Z,99.90
2018-09-22T14:35:48.420Z,99.90
2018-09-22T14:38:23.394Z,99.90
2018-09-22T14:40:55.901Z,99.90
2018-09-22T14:43:30.514Z,99.90
2018-09-22T14:46:02.005Z,99.90
2018-09-22T14:48:34.716Z,99.90
2018-09-22T14:51:08.605Z,99.90
2018-09-22T14:53:40.326Z,99.90
2018-09-22T14:56:13.611Z,99.90
2018-09-22T14:58:44.163Z,99.90
2018-09-22T15:01:22.810Z,99.90
2018-09-22T15:03:53.480Z,99.90
2018-09-22T15:06:22.253Z,99.90
2018-09-22T15:09:00.424Z,99.90
2018-09-22T15:11:30.098Z,99.90
2018-09-22T15:13:59.136Z,99.90
2018-09-22T15:16:28.432Z,99.90
2018-09-22T15:18:57.838Z,99.90
2018-09-22T15:21:31.008Z,99.90
2018-09-22T15:23:59.717Z,99.90
2018-09-22T15:26:28.531Z,99.90
2018-09-22T15:28:57.774Z,99.90
2018-09-22T15:31:26.552Z,99.90
2018-09-22T15:34:02.202Z,99.90
2018-09-22T15:36:31.748Z,99.90
2018-09-22T15:39:02.250Z,99.90
2018-09-22T15:41:31.405Z,99.90
2018-09-22T15:44:00.791Z,99.90
2018-09-22T15:46:30.091Z,99.90
2018-09-22T15:48:59.245Z,99.90
2018-09-22T15:54:15.777Z,99.90
2018-09-22T15:56:50.159Z,99.90
2018-09-22T15:59:34.854Z,99.90
2018-09-22T16:02:03.637Z,99.90
2018-09-22T16:04:32.796Z,99.90
2018-09-22T16:07:01.906Z,99.90
2018-09-22T16:09:30.504Z,99.90
2018-09-22T16:11:59.080Z,99.90
2018-09-22T16:14:28.822Z,99.90
2018-09-22T16:16:57.871Z,99.90
2018-09-22T16:19:26.811Z,99.90
2018-09-22T16:21:55.948Z,99.90
2018-09-22T16:24:26.670Z,99.90
2018-09-22T16:26:59.388Z,99.90
2018-09-22T16:29:29.299Z,99.90
2018-09-22T16:31:57.776Z,99.90
2018-09-22T16:34:26.333Z,99.90
2018-09-22T16:36:55.165Z,99.90
2018-09-22T16:39:23.699Z,99.90
2018-09-22T16:41:53.346Z,99.90
2018-09-22T16:44:21.922Z,99.90
2018-09-22T16:46:51.028Z,99.90
2018-09-22T16:49:19.883Z,99.90
2018-09-22T16:51:48.527Z,99.90
2018-09-22T16:54:17.743Z,99.90
2018-09-22T16:56:46.871Z,99.90
2018-09-22T16:59:16.509Z,99.90
2018-09-22T17:01:45.260Z,99.90
2018-09-22T17:04:17.231Z,99.90
2018-09-22T17:06:45.702Z,99.90
2018-09-22T17:09:14.200Z,99.90
2018-09-22T17:11:43.393Z,99.90
2018-09-22T17:14:11.872Z,99.90
2018-09-22T17:16:40.525Z,99.90
2018-09-22T17:19:10.305Z,99.90
2018-09-22T17:21:39.059Z,99.90
2018-09-22T17:24:07.879Z,99.90
2018-09-22T17:26:54.171Z,99.90
2018-09-22T17:29:23.191Z,99.90
2018-09-22T17:31:54.724Z,99.90
2018-09-22T17:34:23.722Z,99.90
2018-09-22T17:36:52.777Z,99.90
2018-09-22T17:39:22.115Z,99.90
2018-09-22T17:41:51.204Z,99.90
2018-09-22T17:44:20.033Z,99.90
2018-09-22T17:46:48.580Z,99.90
2018-09-22T17:49:18.324Z,99.90
2018-09-22T17:51:48.717Z,99.90
2018-09-22T17:54:17.751Z,99.90
2018-09-22T17:56:48.267Z,99.90
2018-09-22T17:59:20.823Z,99.90
2018-09-22T18:01:51.661Z,99.90
2018-09-22T18:04:21.521Z,99.90
2018-09-22T18:06:50.583Z,99.90
2018-09-22T18:09:20.062Z,99.90
2018-09-22T18:11:50.555Z,99.90
2018-09-22T18:14:22.418Z,99.90
2018-09-22T18:16:51.160Z,99.90
2018-09-22T18:19:19.672Z,99.90
2018-09-22T18:21:48.615Z,99.90
2018-09-22T18:24:17.245Z,99.90
2018-09-22T18:26:46.031Z,99.90
2018-09-22T18:29:15.079Z,99.90
2018-09-22T18:31:44.818Z,99.90
2018-09-22T18:34:14.688Z,99.90
2018-09-22T18:36:43.563Z,99.90
2018-09-22T18:39:13.026Z,99.90
2018-09-22T18:41:41.849Z,99.90
2018-09-22T18:44:10.663Z,99.90
2018-09-22T18:46:39.942Z,99.90
2018-09-22T18:49:09.274Z,99.90
2018-09-22T18:51:38.672Z,99.90
2018-09-22T18:54:07.597Z,99.90
2018-09-22T18:56:36.292Z,99.90
2018-09-22T18:59:05.064Z,99.90
2018-09-22T19:01:35.216Z,99.90
2018-09-22T19:04:04.169Z,99.90
2018-09-22T19:06:32.909Z,99.90
2018-09-22T19:09:02.295Z,99.90
2018-09-22T19:11:31.658Z,99.90
2018-09-22T19:14:05.254Z,99.90
2018-09-22T19:16:40.435Z,99.90
2018-09-22T19:19:20.153Z,99.90
2018-09-22T19:21:55.969Z,99.90
2018-09-22T19:24:29.911Z,99.90
2018-09-22T19:27:05.821Z,99.90
2018-09-22T19:29:40.652Z,99.90
2018-09-22T19:32:16.637Z,99.90
2018-09-22T19:34:49.628Z,99.90
2018-09-22T19:37:23.612Z,99.90
2018-09-22T19:39:59.131Z,99.90
2018-09-22T19:44:34.753Z,99.90
2018-09-22T19:47:07.902Z,99.90
2018-09-22T19:49:41.166Z,99.90
2018-09-22T19:52:13.071Z,99.90
2018-09-22T19:54:41.697Z,99.90
2018-09-22T20:00:03.705Z,99.90
2018-09-22T20:02:35.166Z,99.90
2018-09-22T20:05:04.543Z,99.90
2018-09-22T20:07:33.197Z,99.90
2018-09-22T20:10:03.238Z,99.90
2018-09-22T20:15:25.007Z,99.90
2018-09-22T20:17:53.779Z,99.90
2018-09-22T20:20:22.776Z,99.90
2018-09-22T20:22:51.754Z,99.90
2018-09-22T20:25:20.937Z,99.90
2018-09-22T20:27:49.727Z,99.90
2018-09-22T20:30:20.457Z,99.90
2018-09-22T20:32:49.318Z,99.90
2018-09-22T20:35:18.513Z,99.90
2018-09-22T20:37:52.851Z,99.90
2018-09-22T20:40:22.216Z,99.90
2018-09-22T20:42:51.178Z,99.90
2018-09-22T20:45:20.329Z,99.90
2018-09-22T20:47:50.410Z,99.90
2018-09-22T20:50:26.639Z,99.90
2018-09-22T20:52:57.409Z,99.90
2018-09-22T21:28:51.904Z,99.90
2018-09-22T21:31:26.191Z,99.90
